sensor_id;sensor_type;location;lat;lon;timestamp;temperature;humidity
25248;DHT22;13191;47.472;11.214;2023-03-01T00:01:07;0.00;99.90
25248;DHT22;13191;47.472;11.214;2023-03-01T00:03:32;0.00;99.90
25248;DHT22;13191;47.472;11.214;2023-03-01T00:05:58;0.00;99.90
25248;DHT22;13191;47.472;11.214;2023-03-01T00:08:24;0.00;99.90
25248;DHT22;13191;47.472;11.214;2023-03-01T00:10:59;0.00;99.90
25248;DHT22;13191;47.472;11.214;2023-03-01T00:13:24;0.00;99.90
25248;DHT22;13191;47.472;11.214;2023-03-01T00:15:50;0.00;99.90
25248;DHT22;13191;47.472;11.214;2023-03-01T00:18:15;0.00;99.90
25248;DHT22;13191;47.472;11.214;2023-03-01T00:20:41;0.10;99.90
25248;DHT22;13191;47.472;11.214;2023-03-01T00:23:06;0.10;99.90
25248;DHT22;13191;47.472;11.214;2023-03-01T00:25:32;0.10;99.90
25248;DHT22;13191;47.472;11.214;2023-03-01T00:27:57;0.10;99.90
25248;DHT22;13191;47.472;11.214;2023-03-01T00:30:23;0.10;99.90
25248;DHT22;13191;47.472;11.214;2023-03-01T00:32:48;0.10;99.90
25248;DHT22;13191;47.472;11.214;2023-03-01T00:35:14;0.00;99.90
25248;DHT22;13191;47.472;11.214;2023-03-01T00:37:39;0.00;99.90
25248;DHT22;13191;47.472;11.214;2023-03-01T00:40:06;0.00;99.90
25248;DHT22;13191;47.472;11.214;2023-03-01T00:42:32;0.00;99.90
25248;DHT22;13191;47.472;11.214;2023-03-01T00:44:58;0.00;99.90
25248;DHT22;13191;47.472;11.214;2023-03-01T00:47:23;-0.20;99.90
25248;DHT22;13191;47.472;11.214;2023-03-01T00:49:49;-0.20;99.90
25248;DHT22;13191;47.472;11.214;2023-03-01T00:52:15;-0.20;99.90
25248;DHT22;13191;47.472;11.214;2023-03-01T00:54:40;-0.20;99.90
25248;DHT22;13191;47.472;11.214;2023-03-01T00:57:05;-0.30;99.90
25248;DHT22;13191;47.472;11.214;2023-03-01T00:59:31;-0.30;99.90
25248;DHT22;13191;47.472;11.214;2023-03-01T01:01:56;-0.50;99.90
25248;DHT22;13191;47.472;11.214;2023-03-01T01:04:22;-0.50;99.90
25248;DHT22;13191;47.472;11.214;2023-03-01T01:06:47;-0.60;99.90
25248;DHT22;13191;47.472;11.214;2023-03-01T01:09:15;-0.60;99.90
25248;DHT22;13191;47.472;11.214;2023-03-01T01:11:48;-0.60;99.90
25248;DHT22;13191;47.472;11.214;2023-03-01T01:14:14;-0.60;99.90
25248;DHT22;13191;47.472;11.214;2023-03-01T01:16:39;-0.50;99.90
25248;DHT22;13191;47.472;11.214;2023-03-01T01:19:04;-0.60;99.90
25248;DHT22;13191;47.472;11.214;2023-03-01T01:21:30;-0.60;99.90
25248;DHT22;13191;47.472;11.214;2023-03-01T01:23:56;-0.60;99.90
25248;DHT22;13191;47.472;11.214;2023-03-01T01:26:23;-0.60;99.90
25248;DHT22;13191;47.472;11.214;2023-03-01T01:28:49;-0.70;99.90
25248;DHT22;13191;47.472;11.214;2023-03-01T01:31:15;-0.60;99.90
25248;DHT22;13191;47.472;11.214;2023-03-01T01:33:41;-0.70;99.90
25248;DHT22;13191;47.472;11.214;2023-03-01T01:36:06;-0.60;99.90
25248;DHT22;13191;47.472;11.214;2023-03-01T01:38:33;-0.70;99.90
25248;DHT22;13191;47.472;11.214;2023-03-01T01:40:58;-0.70;99.90
25248;DHT22;13191;47.472;11.214;2023-03-01T01:43:28;-0.70;99.90
25248;DHT22;13191;47.472;11.214;2023-03-01T01:45:55;-0.70;99.90
25248;DHT22;13191;47.472;11.214;2023-03-01T01:48:21;-0.70;99.90
25248;DHT22;13191;47.472;11.214;2023-03-01T01:50:50;-0.70;99.90
25248;DHT22;13191;47.472;11.214;2023-03-01T01:53:17;-0.70;99.90
25248;DHT22;13191;47.472;11.214;2023-03-01T01:55:52;-0.70;99.90
25248;DHT22;13191;47.472;11.214;2023-03-01T01:58:19;-0.70;99.90
25248;DHT22;13191;47.472;11.214;2023-03-01T02:00:45;-0.70;99.90
25248;DHT22;13191;47.472;11.214;2023-03-01T02:03:13;-0.70;99.90
25248;DHT22;13191;47.472;11.214;2023-03-01T02:05:42;-0.70;99.90
25248;DHT22;13191;47.472;11.214;2023-03-01T02:08:08;-0.70;99.90
25248;DHT22;13191;47.472;11.214;2023-03-01T02:10:35;-0.70;99.90
25248;DHT22;13191;47.472;11.214;2023-03-01T02:13:01;-0.70;99.90
25248;DHT22;13191;47.472;11.214;2023-03-01T02:15:29;-0.70;99.90
25248;DHT22;13191;47.472;11.214;2023-03-01T02:17:56;-0.70;99.90
25248;DHT22;13191;47.472;11.214;2023-03-01T02:22:47;-0.70;99.90
25248;DHT22;13191;47.472;11.214;2023-03-01T02:27:48;-0.70;99.90
25248;DHT22;13191;47.472;11.214;2023-03-01T02:30:15;-0.80;99.90
25248;DHT22;13191;47.472;11.214;2023-03-01T02:32:41;-0.90;99.90
25248;DHT22;13191;47.472;11.214;2023-03-01T02:35:10;-1.00;99.90
25248;DHT22;13191;47.472;11.214;2023-03-01T02:37:37;-1.00;99.90
25248;DHT22;13191;47.472;11.214;2023-03-01T02:40:04;-1.00;99.90
25248;DHT22;13191;47.472;11.214;2023-03-01T02:42:35;-1.00;99.90
25248;DHT22;13191;47.472;11.214;2023-03-01T02:45:02;-0.90;99.90
25248;DHT22;13191;47.472;11.214;2023-03-01T02:47:27;-0.90;99.90
25248;DHT22;13191;47.472;11.214;2023-03-01T02:49:53;-0.90;99.90
25248;DHT22;13191;47.472;11.214;2023-03-01T02:52:30;-0.90;99.90
25248;DHT22;13191;47.472;11.214;2023-03-01T02:55:03;-0.90;99.90
25248;DHT22;13191;47.472;11.214;2023-03-01T02:57:30;-0.90;99.90
25248;DHT22;13191;47.472;11.214;2023-03-01T02:59:56;-0.90;99.90
25248;DHT22;13191;47.472;11.214;2023-03-01T03:02:23;-0.80;99.90
25248;DHT22;13191;47.472;11.214;2023-03-01T03:05:05;-0.80;99.90
25248;DHT22;13191;47.472;11.214;2023-03-01T03:07:34;-0.90;99.90
25248;DHT22;13191;47.472;11.214;2023-03-01T03:10:00;-0.90;99.90
25248;DHT22;13191;47.472;11.214;2023-03-01T03:12:26;-0.80;99.90
25248;DHT22;13191;47.472;11.214;2023-03-01T03:14:51;-0.80;99.90
25248;DHT22;13191;47.472;11.214;2023-03-01T03:17:17;-0.80;99.90
25248;DHT22;13191;47.472;11.214;2023-03-01T03:19:42;-0.80;99.90
25248;DHT22;13191;47.472;11.214;2023-03-01T03:22:13;-0.80;99.90
25248;DHT22;13191;47.472;11.214;2023-03-01T03:24:39;-0.80;99.90
25248;DHT22;13191;47.472;11.214;2023-03-01T03:27:05;-0.80;99.90
25248;DHT22;13191;47.472;11.214;2023-03-01T03:29:30;-0.80;99.90
25248;DHT22;13191;47.472;11.214;2023-03-01T03:31:56;-0.80;99.90
25248;DHT22;13191;47.472;11.214;2023-03-01T03:34:22;-0.80;99.90
25248;DHT22;13191;47.472;11.214;2023-03-01T03:36:47;-0.70;99.90
25248;DHT22;13191;47.472;11.214;2023-03-01T03:39:13;-0.70;99.90
25248;DHT22;13191;47.472;11.214;2023-03-01T03:41:38;-0.70;99.90
25248;DHT22;13191;47.472;11.214;2023-03-01T03:44:04;-0.60;99.90
25248;DHT22;13191;47.472;11.214;2023-03-01T03:46:29;-0.70;99.90
25248;DHT22;13191;47.472;11.214;2023-03-01T03:48:55;-0.70;99.90
25248;DHT22;13191;47.472;11.214;2023-03-01T03:51:20;-0.70;99.90
25248;DHT22;13191;47.472;11.214;2023-03-01T03:53:47;-0.60;99.90
25248;DHT22;13191;47.472;11.214;2023-03-01T03:56:13;-0.60;99.90
25248;DHT22;13191;47.472;11.214;2023-03-01T03:58:39;-0.60;99.90
25248;DHT22;13191;47.472;11.214;2023-03-01T04:01:04;-0.60;99.90
25248;DHT22;13191;47.472;11.214;2023-03-01T04:03:30;-0.60;99.90
25248;DHT22;13191;47.472;11.214;2023-03-01T04:05:57;-0.60;99.90
25248;DHT22;13191;47.472;11.214;2023-03-01T04:08:23;-0.60;99.90
25248;DHT22;13191;47.472;11.214;2023-03-01T04:10:51;-0.60;99.90
25248;DHT22;13191;47.472;11.214;2023-03-01T04:13:18;-0.60;99.90
25248;DHT22;13191;47.472;11.214;2023-03-01T04:15:45;-0.60;99.90
25248;DHT22;13191;47.472;11.214;2023-03-01T04:18:11;-0.50;99.90
25248;DHT22;13191;47.472;11.214;2023-03-01T04:20:37;-0.50;99.90
25248;DHT22;13191;47.472;11.214;2023-03-01T04:23:05;-0.50;99.90
25248;DHT22;13191;47.472;11.214;2023-03-01T04:25:49;-0.60;99.90
25248;DHT22;13191;47.472;11.214;2023-03-01T04:28:25;-0.60;99.90
25248;DHT22;13191;47.472;11.214;2023-03-01T04:30:51;-0.60;99.90
25248;DHT22;13191;47.472;11.214;2023-03-01T04:33:17;-0.60;99.90
25248;DHT22;13191;47.472;11.214;2023-03-01T04:35:43;-0.50;99.90
25248;DHT22;13191;47.472;11.214;2023-03-01T04:38:08;-0.60;99.90
25248;DHT22;13191;47.472;11.214;2023-03-01T04:40:34;-0.60;99.90
25248;DHT22;13191;47.472;11.214;2023-03-01T04:43:00;-0.60;99.90
25248;DHT22;13191;47.472;11.214;2023-03-01T04:45:25;-0.60;99.90
25248;DHT22;13191;47.472;11.214;2023-03-01T04:47:51;-0.60;99.90
25248;DHT22;13191;47.472;11.214;2023-03-01T04:50:19;-0.70;99.90
25248;DHT22;13191;47.472;11.214;2023-03-01T04:52:48;-0.60;99.90
25248;DHT22;13191;47.472;11.214;2023-03-01T04:55:14;-0.60;99.90
25248;DHT22;13191;47.472;11.214;2023-03-01T04:57:40;-0.60;99.90
25248;DHT22;13191;47.472;11.214;2023-03-01T05:00:06;-0.60;99.90
25248;DHT22;13191;47.472;11.214;2023-03-01T05:02:46;-0.60;99.90
25248;DHT22;13191;47.472;11.214;2023-03-01T05:05:11;-0.60;99.90
25248;DHT22;13191;47.472;11.214;2023-03-01T05:07:37;-0.50;99.90
25248;DHT22;13191;47.472;11.214;2023-03-01T05:10:02;-0.50;99.90
25248;DHT22;13191;47.472;11.214;2023-03-01T05:12:28;-0.60;99.90
25248;DHT22;13191;47.472;11.214;2023-03-01T05:14:53;-0.50;99.90
25248;DHT22;13191;47.472;11.214;2023-03-01T05:17:18;-0.60;99.90
25248;DHT22;13191;47.472;11.214;2023-03-01T05:19:44;-0.50;99.90
25248;DHT22;13191;47.472;11.214;2023-03-01T05:22:09;-0.60;99.90
25248;DHT22;13191;47.472;11.214;2023-03-01T05:24:35;-0.70;99.90
25248;DHT22;13191;47.472;11.214;2023-03-01T05:27:01;-0.70;99.90
25248;DHT22;13191;47.472;11.214;2023-03-01T05:29:27;-0.70;99.90
25248;DHT22;13191;47.472;11.214;2023-03-01T05:31:54;-0.60;99.90
25248;DHT22;13191;47.472;11.214;2023-03-01T05:34:27;-0.60;99.90
25248;DHT22;13191;47.472;11.214;2023-03-01T05:36:53;-0.60;99.90
25248;DHT22;13191;47.472;11.214;2023-03-01T05:39:23;-0.50;99.90
25248;DHT22;13191;47.472;11.214;2023-03-01T05:41:52;-0.50;99.90
25248;DHT22;13191;47.472;11.214;2023-03-01T05:44:18;-0.40;99.90
25248;DHT22;13191;47.472;11.214;2023-03-01T05:46:43;-0.40;99.90
25248;DHT22;13191;47.472;11.214;2023-03-01T05:49:10;-0.40;99.90
25248;DHT22;13191;47.472;11.214;2023-03-01T05:51:36;-0.40;99.90
25248;DHT22;13191;47.472;11.214;2023-03-01T05:54:01;-0.40;99.90
25248;DHT22;13191;47.472;11.214;2023-03-01T05:56:27;-0.30;99.90
25248;DHT22;13191;47.472;11.214;2023-03-01T05:58:52;-0.30;99.90
25248;DHT22;13191;47.472;11.214;2023-03-01T06:01:18;-0.30;99.90
25248;DHT22;13191;47.472;11.214;2023-03-01T06:03:43;-0.20;99.90
25248;DHT22;13191;47.472;11.214;2023-03-01T06:06:09;-0.20;99.90
25248;DHT22;13191;47.472;11.214;2023-03-01T06:08:34;-0.20;99.90
25248;DHT22;13191;47.472;11.214;2023-03-01T06:10:59;-0.30;99.90
25248;DHT22;13191;47.472;11.214;2023-03-01T06:13:25;-0.20;99.90
25248;DHT22;13191;47.472;11.214;2023-03-01T06:15:50;-0.20;99.90
25248;DHT22;13191;47.472;11.214;2023-03-01T06:18:16;-0.20;99.90
25248;DHT22;13191;47.472;11.214;2023-03-01T06:20:44;-0.20;99.90
25248;DHT22;13191;47.472;11.214;2023-03-01T06:23:10;-0.10;99.90
25248;DHT22;13191;47.472;11.214;2023-03-01T06:25:35;-0.10;99.90
25248;DHT22;13191;47.472;11.214;2023-03-01T06:28:02;-0.10;99.90
25248;DHT22;13191;47.472;11.214;2023-03-01T06:30:29;-0.10;99.90
25248;DHT22;13191;47.472;11.214;2023-03-01T06:32:56;-0.10;99.90
25248;DHT22;13191;47.472;11.214;2023-03-01T06:35:25;-0.10;99.90
25248;DHT22;13191;47.472;11.214;2023-03-01T06:37:55;-0.10;99.90
25248;DHT22;13191;47.472;11.214;2023-03-01T06:40:20;-0.10;99.90
25248;DHT22;13191;47.472;11.214;2023-03-01T06:42:49;-0.10;99.90
25248;DHT22;13191;47.472;11.214;2023-03-01T06:45:15;-0.10;99.90
25248;DHT22;13191;47.472;11.214;2023-03-01T06:47:41;-0.10;99.90
25248;DHT22;13191;47.472;11.214;2023-03-01T06:50:07;-0.10;99.90
25248;DHT22;13191;47.472;11.214;2023-03-01T06:52:32;-0.10;99.90
25248;DHT22;13191;47.472;11.214;2023-03-01T06:54:58;-0.10;99.90
25248;DHT22;13191;47.472;11.214;2023-03-01T06:57:24;-0.10;99.90
25248;DHT22;13191;47.472;11.214;2023-03-01T06:59:49;-0.10;99.90
25248;DHT22;13191;47.472;11.214;2023-03-01T07:02:15;-0.10;99.90
25248;DHT22;13191;47.472;11.214;2023-03-01T07:04:40;0.00;99.90
25248;DHT22;13191;47.472;11.214;2023-03-01T07:07:06;-0.10;99.90
25248;DHT22;13191;47.472;11.214;2023-03-01T07:09:32;-0.10;99.90
25248;DHT22;13191;47.472;11.214;2023-03-01T07:11:57;0.00;99.90
25248;DHT22;13191;47.472;11.214;2023-03-01T07:14:23;-0.10;99.90
25248;DHT22;13191;47.472;11.214;2023-03-01T07:16:51;-0.10;99.90
25248;DHT22;13191;47.472;11.214;2023-03-01T07:19:18;-0.20;99.90
25248;DHT22;13191;47.472;11.214;2023-03-01T07:21:43;-0.30;99.90
25248;DHT22;13191;47.472;11.214;2023-03-01T07:24:10;-0.40;99.90
25248;DHT22;13191;47.472;11.214;2023-03-01T07:26:36;-0.40;99.90
25248;DHT22;13191;47.472;11.214;2023-03-01T07:29:02;-0.30;99.90
25248;DHT22;13191;47.472;11.214;2023-03-01T07:31:28;-0.30;99.90
25248;DHT22;13191;47.472;11.214;2023-03-01T07:33:54;-0.20;99.90
25248;DHT22;13191;47.472;11.214;2023-03-01T07:36:20;-0.20;99.90
25248;DHT22;13191;47.472;11.214;2023-03-01T07:38:45;-0.20;99.90
25248;DHT22;13191;47.472;11.214;2023-03-01T07:41:11;-0.20;99.90
25248;DHT22;13191;47.472;11.214;2023-03-01T07:43:37;-0.20;99.90
25248;DHT22;13191;47.472;11.214;2023-03-01T07:46:03;-0.20;99.90
25248;DHT22;13191;47.472;11.214;2023-03-01T07:48:29;-0.20;99.90
25248;DHT22;13191;47.472;11.214;2023-03-01T07:50:57;-0.20;99.90
25248;DHT22;13191;47.472;11.214;2023-03-01T07:53:23;-0.30;99.90
25248;DHT22;13191;47.472;11.214;2023-03-01T07:55:48;-0.30;99.90
25248;DHT22;13191;47.472;11.214;2023-03-01T07:58:14;-0.30;99.90
25248;DHT22;13191;47.472;11.214;2023-03-01T08:00:39;-0.20;99.90
25248;DHT22;13191;47.472;11.214;2023-03-01T08:03:05;-0.30;99.90
25248;DHT22;13191;47.472;11.214;2023-03-01T08:05:30;-0.40;99.90
25248;DHT22;13191;47.472;11.214;2023-03-01T08:07:57;-0.40;99.90
25248;DHT22;13191;47.472;11.214;2023-03-01T08:10:23;-0.40;99.90
25248;DHT22;13191;47.472;11.214;2023-03-01T08:12:50;-0.30;99.90
25248;DHT22;13191;47.472;11.214;2023-03-01T08:15:16;-0.30;99.90
25248;DHT22;13191;47.472;11.214;2023-03-01T08:17:42;-0.30;99.90
25248;DHT22;13191;47.472;11.214;2023-03-01T08:20:08;-0.30;99.90
25248;DHT22;13191;47.472;11.214;2023-03-01T08:22:34;-0.20;99.90
25248;DHT22;13191;47.472;11.214;2023-03-01T08:24:59;-0.20;99.90
25248;DHT22;13191;47.472;11.214;2023-03-01T08:27:25;-0.20;99.90
25248;DHT22;13191;47.472;11.214;2023-03-01T08:29:50;-0.30;99.90
25248;DHT22;13191;47.472;11.214;2023-03-01T08:32:16;-0.30;99.90
25248;DHT22;13191;47.472;11.214;2023-03-01T08:34:41;-0.30;99.90
25248;DHT22;13191;47.472;11.214;2023-03-01T08:37:07;-0.20;99.90
25248;DHT22;13191;47.472;11.214;2023-03-01T08:39:32;-0.20;99.90
25248;DHT22;13191;47.472;11.214;2023-03-01T08:41:58;-0.10;99.90
25248;DHT22;13191;47.472;11.214;2023-03-01T08:44:23;-0.10;99.90
25248;DHT22;13191;47.472;11.214;2023-03-01T08:46:50;0.00;99.90
25248;DHT22;13191;47.472;11.214;2023-03-01T08:49:17;0.10;99.90
25248;DHT22;13191;47.472;11.214;2023-03-01T08:51:43;0.20;99.90
25248;DHT22;13191;47.472;11.214;2023-03-01T08:54:10;0.20;99.90
25248;DHT22;13191;47.472;11.214;2023-03-01T08:56:36;0.20;99.90
25248;DHT22;13191;47.472;11.214;2023-03-01T08:59:02;0.30;99.90
25248;DHT22;13191;47.472;11.214;2023-03-01T09:01:29;0.40;99.90
25248;DHT22;13191;47.472;11.214;2023-03-01T09:03:54;0.50;99.90
25248;DHT22;13191;47.472;11.214;2023-03-01T09:06:20;0.50;99.90
25248;DHT22;13191;47.472;11.214;2023-03-01T09:08:47;0.60;99.90
25248;DHT22;13191;47.472;11.214;2023-03-01T09:11:19;0.60;99.90
25248;DHT22;13191;47.472;11.214;2023-03-01T09:13:46;0.70;99.90
25248;DHT22;13191;47.472;11.214;2023-03-01T09:16:13;0.80;99.90
25248;DHT22;13191;47.472;11.214;2023-03-01T09:18:38;0.90;99.90
25248;DHT22;13191;47.472;11.214;2023-03-01T09:21:08;0.90;99.90
25248;DHT22;13191;47.472;11.214;2023-03-01T09:23:38;0.90;99.90
25248;DHT22;13191;47.472;11.214;2023-03-01T09:26:04;1.00;99.90
25248;DHT22;13191;47.472;11.214;2023-03-01T09:28:30;1.10;99.90
25248;DHT22;13191;47.472;11.214;2023-03-01T09:30:59;1.20;99.90
25248;DHT22;13191;47.472;11.214;2023-03-01T09:33:25;1.20;99.90
25248;DHT22;13191;47.472;11.214;2023-03-01T09:35:55;1.20;99.90
25248;DHT22;13191;47.472;11.214;2023-03-01T09:38:21;1.20;99.90
25248;DHT22;13191;47.472;11.214;2023-03-01T09:40:46;1.30;99.90
25248;DHT22;13191;47.472;11.214;2023-03-01T09:43:26;1.30;99.90
25248;DHT22;13191;47.472;11.214;2023-03-01T09:45:55;1.30;99.90
25248;DHT22;13191;47.472;11.214;2023-03-01T09:48:26;1.40;99.90
25248;DHT22;13191;47.472;11.214;2023-03-01T09:50:52;1.40;99.90
25248;DHT22;13191;47.472;11.214;2023-03-01T09:53:22;1.40;99.90
25248;DHT22;13191;47.472;11.214;2023-03-01T09:55:50;1.50;99.90
25248;DHT22;13191;47.472;11.214;2023-03-01T10:00:50;1.50;99.90
25248;DHT22;13191;47.472;11.214;2023-03-01T10:03:36;1.60;99.90
25248;DHT22;13191;47.472;11.214;2023-03-01T10:06:06;1.60;99.90
25248;DHT22;13191;47.472;11.214;2023-03-01T10:08:36;1.60;99.90
25248;DHT22;13191;47.472;11.214;2023-03-01T10:11:05;1.70;99.90
25248;DHT22;13191;47.472;11.214;2023-03-01T10:13:52;1.70;99.90
25248;DHT22;13191;47.472;11.214;2023-03-01T10:19:38;1.70;99.90
25248;DHT22;13191;47.472;11.214;2023-03-01T10:24:49;1.60;99.90
25248;DHT22;13191;47.472;11.214;2023-03-01T10:27:38;1.70;99.90
25248;DHT22;13191;47.472;11.214;2023-03-01T10:30:20;1.80;99.90
25248;DHT22;13191;47.472;11.214;2023-03-01T10:32:46;2.00;99.90
25248;DHT22;13191;47.472;11.214;2023-03-01T10:35:21;1.90;99.90
25248;DHT22;13191;47.472;11.214;2023-03-01T10:38:03;1.80;99.90
25248;DHT22;13191;47.472;11.214;2023-03-01T10:40:31;1.80;99.90
25248;DHT22;13191;47.472;11.214;2023-03-01T10:42:58;1.80;99.90
25248;DHT22;13191;47.472;11.214;2023-03-01T10:48:02;1.80;99.90
25248;DHT22;13191;47.472;11.214;2023-03-01T10:50:28;1.80;99.90
25248;DHT22;13191;47.472;11.214;2023-03-01T10:52:58;1.80;99.90
25248;DHT22;13191;47.472;11.214;2023-03-01T10:55:31;1.80;99.90
25248;DHT22;13191;47.472;11.214;2023-03-01T10:58:09;1.90;99.90
25248;DHT22;13191;47.472;11.214;2023-03-01T11:00:44;1.90;99.90
25248;DHT22;13191;47.472;11.214;2023-03-01T11:03:12;2.00;99.90
25248;DHT22;13191;47.472;11.214;2023-03-01T11:05:52;2.10;99.90
25248;DHT22;13191;47.472;11.214;2023-03-01T11:08:31;2.10;99.90
25248;DHT22;13191;47.472;11.214;2023-03-01T11:11:10;2.20;99.90
25248;DHT22;13191;47.472;11.214;2023-03-01T11:13:51;2.20;99.90
25248;DHT22;13191;47.472;11.214;2023-03-01T11:16:22;2.20;99.90
25248;DHT22;13191;47.472;11.214;2023-03-01T11:18:55;2.20;99.90
25248;DHT22;13191;47.472;11.214;2023-03-01T11:21:21;2.30;99.90
25248;DHT22;13191;47.472;11.214;2023-03-01T11:23:46;2.40;99.90
25248;DHT22;13191;47.472;11.214;2023-03-01T11:26:12;2.40;99.90
25248;DHT22;13191;47.472;11.214;2023-03-01T11:28:40;2.50;99.90
25248;DHT22;13191;47.472;11.214;2023-03-01T11:31:08;2.60;99.90
25248;DHT22;13191;47.472;11.214;2023-03-01T11:33:50;2.70;99.90
25248;DHT22;13191;47.472;11.214;2023-03-01T11:39:24;2.90;99.90
25248;DHT22;13191;47.472;11.214;2023-03-01T11:41:52;2.90;99.90
25248;DHT22;13191;47.472;11.214;2023-03-01T11:44:20;2.90;99.90
25248;DHT22;13191;47.472;11.214;2023-03-01T11:56:57;3.30;99.90
25248;DHT22;13191;47.472;11.214;2023-03-01T12:07:53;3.40;99.90
25248;DHT22;13191;47.472;11.214;2023-03-01T12:12:53;3.60;99.90
25248;DHT22;13191;47.472;11.214;2023-03-01T12:15:30;3.70;99.90
25248;DHT22;13191;47.472;11.214;2023-03-01T12:18:04;3.80;99.90
25248;DHT22;13191;47.472;11.214;2023-03-01T12:20:35;3.90;99.90
25248;DHT22;13191;47.472;11.214;2023-03-01T12:23:23;4.10;99.90
25248;DHT22;13191;47.472;11.214;2023-03-01T12:33:32;4.70;99.90
25248;DHT22;13191;47.472;11.214;2023-03-01T12:41:43;5.30;99.90
25248;DHT22;13191;47.472;11.214;2023-03-01T12:44:15;5.50;99.90
25248;DHT22;13191;47.472;11.214;2023-03-01T12:46:51;5.70;99.90
25248;DHT22;13191;47.472;11.214;2023-03-01T12:49:30;5.60;99.90
25248;DHT22;13191;47.472;11.214;2023-03-01T12:52:02;5.70;99.90
25248;DHT22;13191;47.472;11.214;2023-03-01T12:54:29;5.70;99.90
25248;DHT22;13191;47.472;11.214;2023-03-01T12:56:57;5.80;99.90
25248;DHT22;13191;47.472;11.214;2023-03-01T13:01:56;6.00;99.90
25248;DHT22;13191;47.472;11.214;2023-03-01T13:16:54;6.70;99.90
25248;DHT22;13191;47.472;11.214;2023-03-01T13:19:21;6.80;99.90
25248;DHT22;13191;47.472;11.214;2023-03-01T13:21:47;7.00;99.90
25248;DHT22;13191;47.472;11.214;2023-03-01T13:24:32;7.10;99.90
25248;DHT22;13191;47.472;11.214;2023-03-01T13:31:57;7.40;99.90
25248;DHT22;13191;47.472;11.214;2023-03-01T13:34:39;7.60;99.90
25248;DHT22;13191;47.472;11.214;2023-03-01T13:37:09;7.80;99.90
25248;DHT22;13191;47.472;11.214;2023-03-01T13:39:39;7.90;99.90
25248;DHT22;13191;47.472;11.214;2023-03-01T13:42:30;8.00;99.90
25248;DHT22;13191;47.472;11.214;2023-03-01T13:44:51;8.20;99.90
25248;DHT22;13191;47.472;11.214;2023-03-01T13:47:17;8.40;99.90
25248;DHT22;13191;47.472;11.214;2023-03-01T13:49:48;8.50;99.90
25248;DHT22;13191;47.472;11.214;2023-03-01T13:54:50;8.40;99.90
25248;DHT22;13191;47.472;11.214;2023-03-01T13:57:19;8.10;99.90
25248;DHT22;13191;47.472;11.214;2023-03-01T13:59:48;7.60;99.90
25248;DHT22;13191;47.472;11.214;2023-03-01T14:02:14;6.90;99.90
25248;DHT22;13191;47.472;11.214;2023-03-01T14:04:40;6.70;99.90
25248;DHT22;13191;47.472;11.214;2023-03-01T14:07:19;6.70;99.90
25248;DHT22;13191;47.472;11.214;2023-03-01T14:09:45;6.80;99.90
25248;DHT22;13191;47.472;11.214;2023-03-01T14:14:46;6.50;99.90
25248;DHT22;13191;47.472;11.214;2023-03-01T14:19:40;7.00;99.90
25248;DHT22;13191;47.472;11.214;2023-03-01T14:22:19;7.00;99.90
25248;DHT22;13191;47.472;11.214;2023-03-01T14:24:50;7.20;99.90
25248;DHT22;13191;47.472;11.214;2023-03-01T14:27:17;7.50;99.90
25248;DHT22;13191;47.472;11.214;2023-03-01T14:29:42;7.30;99.90
25248;DHT22;13191;47.472;11.214;2023-03-01T14:32:15;7.20;99.90
25248;DHT22;13191;47.472;11.214;2023-03-01T14:34:44;7.30;99.90
25248;DHT22;13191;47.472;11.214;2023-03-01T14:37:18;7.50;99.90
25248;DHT22;13191;47.472;11.214;2023-03-01T14:39:44;7.40;99.90
25248;DHT22;13191;47.472;11.214;2023-03-01T14:42:09;7.40;99.90
25248;DHT22;13191;47.472;11.214;2023-03-01T14:44:35;7.60;99.90
25248;DHT22;13191;47.472;11.214;2023-03-01T14:47:02;7.70;99.90
25248;DHT22;13191;47.472;11.214;2023-03-01T14:49:29;7.80;99.90
25248;DHT22;13191;47.472;11.214;2023-03-01T14:52:03;7.90;99.90
25248;DHT22;13191;47.472;11.214;2023-03-01T14:54:32;7.90;99.90
25248;DHT22;13191;47.472;11.214;2023-03-01T14:57:01;8.10;99.90
25248;DHT22;13191;47.472;11.214;2023-03-01T14:59:27;8.10;99.90
25248;DHT22;13191;47.472;11.214;2023-03-01T15:01:53;8.10;99.90
25248;DHT22;13191;47.472;11.214;2023-03-01T15:04:20;7.90;99.90
25248;DHT22;13191;47.472;11.214;2023-03-01T15:06:47;7.70;99.90
25248;DHT22;13191;47.472;11.214;2023-03-01T15:09:15;7.70;99.90
25248;DHT22;13191;47.472;11.214;2023-03-01T15:11:42;7.60;99.90
25248;DHT22;13191;47.472;11.214;2023-03-01T15:16:53;6.90;99.90
25248;DHT22;13191;47.472;11.214;2023-03-01T15:19:19;6.70;99.90
25248;DHT22;13191;47.472;11.214;2023-03-01T15:21:46;6.60;99.90
25248;DHT22;13191;47.472;11.214;2023-03-01T15:26:55;6.20;99.90
25248;DHT22;13191;47.472;11.214;2023-03-01T15:29:27;5.90;99.90
25248;DHT22;13191;47.472;11.214;2023-03-01T15:32:31;5.60;99.90
25248;DHT22;13191;47.472;11.214;2023-03-01T15:39:58;5.10;99.90
25248;DHT22;13191;47.472;11.214;2023-03-01T15:50:26;4.40;99.90
25248;DHT22;13191;47.472;11.214;2023-03-01T15:52:52;4.30;99.90
25248;DHT22;13191;47.472;11.214;2023-03-01T15:57:44;3.80;99.90
25248;DHT22;13191;47.472;11.214;2023-03-01T16:00:11;3.70;99.90
25248;DHT22;13191;47.472;11.214;2023-03-01T16:02:42;3.60;99.90
25248;DHT22;13191;47.472;11.214;2023-03-01T16:05:27;3.40;99.90
25248;DHT22;13191;47.472;11.214;2023-03-01T16:07:53;3.30;99.90
25248;DHT22;13191;47.472;11.214;2023-03-01T16:10:19;2.90;99.90
25248;DHT22;13191;47.472;11.214;2023-03-01T16:12:44;2.80;99.90
25248;DHT22;13191;47.472;11.214;2023-03-01T16:15:15;2.60;99.90
25248;DHT22;13191;47.472;11.214;2023-03-01T16:17:41;2.50;99.90
25248;DHT22;13191;47.472;11.214;2023-03-01T16:20:07;2.40;99.90
25248;DHT22;13191;47.472;11.214;2023-03-01T16:22:32;2.40;99.90
25248;DHT22;13191;47.472;11.214;2023-03-01T16:24:58;2.50;99.90
25248;DHT22;13191;47.472;11.214;2023-03-01T16:27:25;2.40;99.90
25248;DHT22;13191;47.472;11.214;2023-03-01T16:29:50;2.30;99.90
25248;DHT22;13191;47.472;11.214;2023-03-01T16:32:16;2.20;99.90
25248;DHT22;13191;47.472;11.214;2023-03-01T16:34:41;2.00;99.90
25248;DHT22;13191;47.472;11.214;2023-03-01T16:37:06;2.00;99.90
25248;DHT22;13191;47.472;11.214;2023-03-01T16:39:33;1.90;99.90
25248;DHT22;13191;47.472;11.214;2023-03-01T16:41:59;1.90;99.90
25248;DHT22;13191;47.472;11.214;2023-03-01T16:44:25;1.90;99.90
25248;DHT22;13191;47.472;11.214;2023-03-01T16:46:50;1.80;99.90
25248;DHT22;13191;47.472;11.214;2023-03-01T16:49:16;1.80;99.90
25248;DHT22;13191;47.472;11.214;2023-03-01T16:51:41;1.70;99.90
25248;DHT22;13191;47.472;11.214;2023-03-01T16:54:07;1.80;99.90
25248;DHT22;13191;47.472;11.214;2023-03-01T16:56:32;1.80;99.90
25248;DHT22;13191;47.472;11.214;2023-03-01T16:59:00;1.90;99.90
25248;DHT22;13191;47.472;11.214;2023-03-01T17:01:26;1.90;99.90
25248;DHT22;13191;47.472;11.214;2023-03-01T17:03:58;1.90;99.90
25248;DHT22;13191;47.472;11.214;2023-03-01T17:06:23;1.80;99.90
25248;DHT22;13191;47.472;11.214;2023-03-01T17:08:51;1.70;99.90